Volk Field
KVOK : now visible

Airfield :











YOU CAN JOIN US ON...

 
LOGIN :

Register | Disclaimer

   EN    FR    IT 

 









Legend :    VFR   Marginal VFR   IFR   Intensive IFR   Very Intensive IFR
Visi :
Ceiling :
>= 8 km
>= 3000ft
5 to 8 km
1000 to 3000 ft
1500m to 5 km
500 to 1000 ft
800 to 1500m
200 to 500 ft
< 800m
< 200 ft
Symbols :   Thunderstorms  Fog  Heavy snow  Heavy precipitations  Wind > 20 kt






- Airport Elevation : 912 ft


KVOK - Volk Field

CURRENT METAR :
  • 212156Z 19015G23KT 10SM SCT055 14/05 A2927 RMK AO2A PK WND 18029/21 SLP916

EXPIRED METARs :
  • 212056Z 18011G17KT 10SM BKN042 17/08 A2923 RMK AO2A SLP901 60000 53000
  • 211956Z 18012G19KT 10SM BKN034 17/12 A2921 RMK AO2A SLP895

TAF AMD TAF KVOK
Valid from the 21 at 18:00 until the 22 at 23:00 UTC


211853Z 2118/2223 20015KT 8000 -SHRA BKN021 BKN065 611304 QNH2922INS
TEMPO 2119/2120 BKN015
BECMG 2120/2121 18015G25KT 9999 NSW OVC025 QNH2921INS
BECMG 2206/2207 21015KT 8000 -SHRA BKN015 630502 QNH2928INS
BECMG 2219/2220 26012KT 9999 NSW BKN030 630307 QNH2945INS TX14/2120Z TN06/2217Z LAST NO AMDS AFT 2121 NEXT 2209



MET'MAP, your aeronautical weather chart ! - Copyright ORBIFLY December 2007 - Disclaimer

ORBIFLY MET'MAP TEAM :

Programming & Development : Alexandra Zaïnal
Concept & Development : Baudouin d'Aumeries
Co-Development & Prog : Marc-Olivier Méhu
Technical & hardware support : Manuel Goepfert

Contact : metmap@orbifly.com




SOURCES & CREDITS :

   NOAA       Earth
Advisory